Time;durP1;ratioP1;P1;durP2;ratioP2;P2;SDS_P1;SDS_P2;PMS_P1;PMS_P2;Temp;Humidity;BMP_temperature;BMP_pressure;BME280_temperature;BME280_humidity;BME280_pressure;Samples;Min_cycle;Max_cycle;Signal;HPM_P1;HPM_P2
2022/03/20 00:00:04;;;;;;;22.80;9.75;;;;;;;6.79;50.07;100182.78;5096873;28;20036;-95
2022/03/20 00:02:33;;;;;;;20.63;9.30;;;;;;;6.88;49.75;100195.22;5095570;28;20036;-94
2022/03/20 00:05:00;;;;;;;19.98;9.73;;;;;;;6.82;49.53;100188.97;5096720;28;20050;-93
2022/03/20 00:07:26;;;;;;;18.45;9.45;;;;;;;6.84;49.15;100192.53;5097717;28;20036;-94
2022/03/20 00:09:52;;;;;;;20.35;9.18;;;;;;;6.94;49.10;100220.81;5099707;28;20051;-92
2022/03/20 00:12:20;;;;;;;18.42;9.52;;;;;;;6.84;49.18;100206.63;5096399;28;20048;-93
2022/03/20 00:14:46;;;;;;;18.80;8.95;;;;;;;6.92;48.81;100223.47;5095579;28;20055;-93
2022/03/20 00:17:13;;;;;;;19.77;9.23;;;;;;;6.80;48.62;100196.88;5096883;28;20489;-94
2022/03/20 00:19:39;;;;;;;21.48;9.27;;;;;;;6.85;48.49;100208.38;5096042;28;20075;-94
2022/03/20 00:22:06;;;;;;;16.65;8.23;;;;;;;6.83;48.63;100191.66;5094473;28;20068;-93
2022/03/20 00:24:33;;;;;;;17.67;9.07;;;;;;;6.78;48.44;100180.09;5094549;28;20097;-95
2022/03/20 00:27:00;;;;;;;19.88;8.90;;;;;;;6.81;47.92;100181.91;5095710;28;20048;-92
2022/03/20 00:29:28;;;;;;;24.73;8.82;;;;;;;6.84;47.99;100188.13;5093928;28;20397;-95
2022/03/20 00:31:54;;;;;;;20.80;8.40;;;;;;;6.95;48.34;100227.91;5096195;28;20155;-95
2022/03/20 00:34:20;;;;;;;21.33;8.68;;;;;;;6.68;48.80;100181.78;5094887;28;20044;-94
2022/03/20 00:36:46;;;;;;;15.68;8.20;;;;;;;6.83;48.94;100222.47;5095752;28;20056;-93
2022/03/20 00:39:12;;;;;;;19.13;9.23;;;;;;;6.61;48.86;100186.97;5095383;28;20071;-94
2022/03/20 00:41:38;;;;;;;17.17;8.43;;;;;;;6.53;49.34;100184.25;5095270;28;20044;-94
2022/03/20 00:44:07;;;;;;;20.48;8.25;;;;;;;6.57;48.86;100192.22;5095452;28;20060;-94
2022/03/20 00:46:34;;;;;;;20.08;8.93;;;;;;;6.55;48.85;100174.59;5094920;28;20053;-91
2022/03/20 00:49:00;;;;;;;16.38;8.55;;;;;;;6.70;49.05;100219.69;5084461;28;20131;-92
2022/03/20 00:51:26;;;;;;;21.25;10.10;;;;;;;6.53;48.77;100182.47;5080583;28;20478;-94
2022/03/20 00:53:53;;;;;;;18.70;8.32;;;;;;;6.71;48.90;100220.56;5081740;28;20505;-94
2022/03/20 00:56:19;;;;;;;19.20;8.88;;;;;;;6.50;49.08;100187.72;5081883;28;20557;-93
2022/03/20 00:58:46;;;;;;;19.33;7.63;;;;;;;6.64;48.88;100214.34;5080783;28;20127;-95
2022/03/20 01:01:14;;;;;;;16.80;8.45;;;;;;;6.58;48.87;100207.19;5080989;28;20037;-94
2022/03/20 01:03:42;;;;;;;17.65;7.68;;;;;;;6.49;48.91;100193.00;5082935;28;20044;-93
2022/03/20 01:06:08;;;;;;;19.33;8.05;;;;;;;6.60;48.64;100223.09;5080863;28;20048;-94
2022/03/20 01:08:34;;;;;;;18.70;8.38;;;;;;;6.60;48.59;100220.44;5080883;28;20033;-91
2022/03/20 01:11:03;;;;;;;16.30;8.57;;;;;;;6.45;49.47;100201.75;5083760;28;20050;-94
2022/03/20 01:13:30;;;;;;;18.67;9.23;;;;;;;6.56;49.22;100223.91;5081837;28;20072;-93
2022/03/20 01:15:56;;;;;;;18.27;8.40;;;;;;;6.35;49.24;100199.00;5082651;28;20041;-94
2022/03/20 01:18:24;;;;;;;18.48;8.43;;;;;;;6.42;49.54;100209.63;5083682;28;20076;-93
2022/03/20 01:20:52;;;;;;;19.90;8.77;;;;;;;6.34;49.89;100193.69;5080092;28;20063;-94
2022/03/20 01:23:21;;;;;;;19.27;9.10;;;;;;;6.30;49.66;100200.69;5080201;28;20043;-94
2022/03/20 01:25:47;;;;;;;23.25;8.57;;;;;;;6.32;49.82;100198.06;5079149;28;20108;-94
2022/03/20 01:28:13;;;;;;;18.10;8.82;;;;;;;6.48;50.06;100233.50;5079757;28;20051;-94
2022/03/20 01:30:39;;;;;;;17.40;7.75;;;;;;;6.38;50.32;100216.66;5059001;28;20037;-94
2022/03/20 01:33:05;;;;;;;16.45;8.75;;;;;;;6.17;50.97;100196.97;5060051;28;20052;-94
2022/03/20 01:35:31;;;;;;;18.50;9.40;;;;;;;6.36;50.43;100223.66;5059188;28;20509;-92
2022/03/20 01:37:59;;;;;;;14.90;8.13;;;;;;;6.42;50.99;100233.41;5059198;28;20064;-93
2022/03/20 01:40:25;;;;;;;16.13;8.70;;;;;;;6.16;51.24;100195.22;5058192;28;20045;-94
2022/03/20 01:42:51;;;;;;;18.85;9.05;;;;;;;6.14;51.44;100194.31;5067473;28;20048;-93
2022/03/20 01:45:19;;;;;;;17.33;8.30;;;;;;;6.22;51.88;100219.94;5060602;28;20044;-93
2022/03/20 01:47:47;;;;;;;17.30;8.27;;;;;;;6.25;52.24;100227.91;5059411;28;20049;-93
2022/03/20 01:50:13;;;;;;;16.83;8.45;;;;;;;6.05;52.21;100183.63;5060355;28;20041;-95
2022/03/20 01:52:39;;;;;;;19.60;8.35;;;;;;;6.03;52.76;100181.81;5060620;28;20391;-96
2022/03/20 01:55:08;;;;;;;17.83;9.55;;;;;;;6.24;52.78;100216.44;5059373;28;20041;-94
2022/03/20 01:57:37;;;;;;;16.57;7.90;;;;;;;6.08;53.00;100182.78;5059339;28;20529;-95
2022/03/20 02:00:03;;;;;;;;;;;;;;;6.27;53.40;100218.25;5060466;28;20282;-94
2022/03/20 02:02:29;;;;;;;17.67;8.55;;;;;;;6.15;53.81;100198.72;5059147;28;19916;-95
2022/03/20 02:04:55;;;;;;;18.42;8.13;;;;;;;6.24;54.15;100219.09;5059309;28;20056;-92
2022/03/20 02:07:21;;;;;;;17.75;8.40;;;;;;;6.06;54.32;100190.66;5062567;28;20033;-93
2022/03/20 02:09:48;;;;;;;14.45;7.57;;;;;;;6.15;54.67;100211.91;5061293;28;20116;-93
2022/03/20 02:12:16;;;;;;;18.90;8.25;;;;;;;5.91;55.47;100190.44;5060009;28;20048;-95
2022/03/20 02:14:42;;;;;;;18.45;8.02;;;;;;;5.90;55.75;100183.38;5061197;28;20053;-94
2022/03/20 02:17:10;;;;;;;17.33;7.85;;;;;;;5.91;55.66;100193.94;5060373;28;20045;-94
2022/03/20 02:19:38;;;;;;;16.05;8.45;;;;;;;5.93;55.98;100191.34;5060072;28;20513;-94
2022/03/20 02:22:05;;;;;;;15.80;8.35;;;;;;;5.91;56.08;100183.38;5060626;28;20052;-94
2022/03/20 02:24:40;;;;;;;19.20;8.43;;;;;;;5.96;56.18;100194.94;5061188;28;20087;-94
2022/03/20 02:27:12;;;;;;;20.30;8.60;;;;;;;5.96;56.29;100191.41;5060508;28;20041;-94
2022/03/20 02:29:39;;;;;;;16.00;8.13;;;;;;;5.93;56.29;100181.66;5059577;28;20469;-94
2022/03/20 02:32:07;;;;;;;13.98;7.30;;;;;;;5.86;56.81;100179.81;5060760;28;20080;-95
2022/03/20 02:34:34;;;;;;;16.88;8.65;;;;;;;5.82;57.41;100188.53;5061920;28;20368;-94
2022/03/20 02:37:01;;;;;;;19.38;8.15;;;;;;;5.81;57.32;100186.75;5060832;28;20079;-95
2022/03/20 02:39:29;;;;;;;14.43;7.63;;;;;;;5.88;57.65;100195.69;5060974;28;20098;-95
2022/03/20 02:41:56;;;;;;;16.60;8.38;;;;;;;5.87;58.29;100207.97;5058774;28;20071;-95
2022/03/20 02:44:48;;;;;;;16.52;7.95;;;;;;;5.89;58.66;100224.72;5058830;28;20046;-93
2022/03/20 02:47:14;;;;;;;17.50;8.00;;;;;;;5.66;59.02;100182.16;5057795;28;20127;-93
2022/03/20 02:49:41;;;;;;;15.50;7.78;;;;;;;5.76;59.41;100210.44;5060379;28;20110;-94
2022/03/20 02:52:07;;;;;;;17.00;7.78;;;;;;;5.82;59.82;100224.63;5059519;28;20044;-95
2022/03/20 02:54:35;;;;;;;17.15;8.48;;;;;;;5.63;59.22;100175.94;5057758;28;20053;-93
2022/03/20 02:57:04;;;;;;;20.05;8.15;;;;;;;5.73;59.37;100188.41;5056576;28;20103;-95
2022/03/20 02:59:30;;;;;;;18.95;7.80;;;;;;;5.83;59.36;100208.78;5058305;28;20044;-95
2022/03/20 03:01:57;;;;;;;15.20;7.90;;;;;;;5.85;59.47;100222.88;5059123;28;20499;-92
2022/03/20 03:04:23;;;;;;;17.65;8.00;;;;;;;5.80;59.44;100208.75;5057431;28;20426;-95
2022/03/20 03:06:49;;;;;;;16.95;8.55;;;;;;;5.71;59.72;100198.94;5060203;28;20041;-93
2022/03/20 03:12:14;;;;;;;15.30;7.80;;;;;;;5.59;60.10;100203.13;5117907;27;20373;-96
2022/03/20 03:17:41;;;;;;;17.95;7.15;;;;;;;5.69;60.85;100231.44;5095505;27;20379;-93
2022/03/20 03:20:08;;;;;;;16.15;8.15;;;;;;;5.71;60.88;100222.69;5095152;28;20044;-93
2022/03/20 03:22:34;;;;;;;19.98;8.55;;;;;;;5.66;60.88;100220.81;5095914;28;20040;-93
2022/03/20 03:25:00;;;;;;;18.20;7.93;;;;;;;5.66;60.97;100218.19;5099033;28;20100;-95
2022/03/20 03:27:25;;;;;;;19.02;8.98;;;;;;;5.71;60.59;100220.03;5095569;28;20450;-93
2022/03/20 03:29:51;;;;;;;18.50;8.48;;;;;;;5.62;60.75;100205.84;5097900;28;20041;-95
2022/03/20 03:32:17;;;;;;;19.83;8.68;;;;;;;5.58;60.94;100207.53;5098730;28;20051;-95
2022/03/20 03:37:46;;;;;;;17.48;7.90;;;;;;;5.53;61.20;100210.09;5112217;27;20383;-94
2022/03/20 03:40:12;;;;;;;22.35;8.57;;;;;;;5.63;61.43;100242.78;5077561;28;20053;-95
2022/03/20 03:42:39;;;;;;;16.77;7.65;;;;;;;5.50;61.37;100202.09;5078092;28;20490;-94
2022/03/20 03:45:08;;;;;;;17.40;7.95;;;;;;;5.53;61.30;100212.72;5075441;28;20383;-94
2022/03/20 03:47:34;;;;;;;16.90;7.93;;;;;;;5.54;61.71;100219.75;5077156;28;20041;-95
2022/03/20 03:50:00;;;;;;;15.35;7.90;;;;;;;5.44;61.88;100214.31;5075671;28;20135;-95
2022/03/20 03:52:26;;;;;;;20.02;9.32;;;;;;;5.51;61.82;100224.13;5074276;28;20041;-92
2022/03/20 03:54:53;;;;;;;16.95;8.45;;;;;;;5.48;61.68;100205.59;5074943;28;20071;-94
2022/03/20 03:57:20;;;;;;;20.55;8.50;;;;;;;5.53;61.66;100215.38;5073537;28;20521;-94
2022/03/20 03:59:46;;;;;;;16.10;7.80;;;;;;;5.59;61.70;100238.31;5073257;28;20095;-95
2022/03/20 04:02:12;;;;;;;17.55;7.63;;;;;;;5.61;62.05;100244.50;5074746;28;20397;-94
2022/03/20 04:04:38;;;;;;;17.88;8.23;;;;;;;5.52;61.49;100212.69;5072747;28;20048;-94
2022/03/20 04:07:04;;;;;;;17.23;7.80;;;;;;;5.47;61.86;100214.38;5074451;28;20128;-95
2022/03/20 04:09:30;;;;;;;17.42;8.68;;;;;;;5.50;61.99;100236.41;5072974;28;20056;-93
2022/03/20 04:11:58;;;;;;;15.93;9.23;;;;;;;5.56;61.92;100240.91;5072852;28;20033;-92
2022/03/20 04:14:24;;;;;;;17.25;8.18;;;;;;;5.37;62.24;100215.97;5074677;28;20053;-94
2022/03/20 04:16:50;;;;;;;16.52;7.95;;;;;;;5.49;62.38;100246.97;5074007;28;20494;-92
2022/03/20 04:19:16;;;;;;;18.00;8.57;;;;;;;5.49;62.62;100260.16;5073835;28;20041;-95
2022/03/20 04:21:42;;;;;;;17.50;9.77;;;;;;;5.34;62.29;100226.47;5072814;28;20102;-91
2022/03/20 04:24:08;;;;;;;15.00;7.63;;;;;;;5.35;62.65;100225.59;5074033;28;20131;-92
2022/03/20 04:26:34;;;;;;;20.27;8.55;;;;;;;5.39;62.35;100224.78;5073746;28;20060;-94
2022/03/20 04:29:02;;;;;;;13.20;7.57;;;;;;;5.33;62.30;100224.69;5072732;28;20072;-94
2022/03/20 04:31:29;;;;;;;12.98;7.70;;;;;;;5.36;62.33;100232.66;5072810;28;20087;-93
2022/03/20 04:33:56;;;;;;;16.52;8.30;;;;;;;5.40;62.39;100238.84;5072860;28;20073;-93
2022/03/20 04:36:24;;;;;;;15.98;8.35;;;;;;;5.52;61.88;100239.06;5072074;28;20068;-93
2022/03/20 04:38:51;;;;;;;16.40;8.25;;;;;;;5.59;61.93;100245.34;5073211;28;20063;-92
2022/03/20 04:41:18;;;;;;;15.65;8.18;;;;;;;5.38;61.95;100224.75;5073128;28;20107;-94
2022/03/20 04:43:45;;;;;;;16.92;8.50;;;;;;;5.45;62.40;100250.41;5073950;28;20052;-94
2022/03/20 04:46:12;;;;;;;16.95;8.15;;;;;;;5.37;62.40;100238.81;5072765;28;20095;-93
2022/03/20 05:00:47;;;;;;;19.20;8.20;;;;;;;5.33;63.00;100253.69;5098485;27;20894;-96
2022/03/20 05:03:13;;;;;;;18.45;9.18;;;;;;;5.21;62.74;100230.63;5098136;28;20043;-95
2022/03/20 05:05:39;;;;;;;16.60;7.75;;;;;;;5.26;62.59;100251.81;5098466;28;20040;-95
2022/03/20 05:08:05;;;;;;;20.75;8.55;;;;;;;5.09;63.20;100243.59;5100241;28;20044;-94
2022/03/20 05:13:30;;;;;;;19.13;8.23;;;;;;;5.36;62.61;100269.59;5095163;27;20382;-93
2022/03/20 05:15:56;;;;;;;19.88;8.23;;;;;;;5.28;62.28;100250.97;5094983;28;20044;-94
2022/03/20 05:18:23;;;;;;;16.58;7.95;;;;;;;5.35;62.13;100259.88;5094515;28;20047;-94
2022/03/20 05:20:49;;;;;;;16.00;8.00;;;;;;;5.31;62.30;100263.31;5094235;28;20045;-93
2022/03/20 05:23:15;;;;;;;17.40;8.15;;;;;;;5.50;62.20;100275.97;5093308;28;20044;-94
2022/03/20 05:25:42;;;;;;;15.30;8.13;;;;;;;5.34;62.31;100260.75;5093702;28;20070;-94
2022/03/20 05:28:08;;;;;;;17.63;8.50;;;;;;;5.30;62.47;100256.28;5094008;28;20044;-94
2022/03/20 05:30:35;;;;;;;19.35;8.27;;;;;;;5.38;62.47;100269.59;5093645;28;20028;-95
2022/03/20 05:33:01;;;;;;;16.23;8.63;;;;;;;5.45;62.49;100290.84;5093504;28;20083;-93
2022/03/20 05:35:29;;;;;;;16.73;9.05;;;;;;;5.40;62.64;100275.78;5094351;28;20390;-95
2022/03/20 05:37:55;;;;;;;15.45;7.93;;;;;;;5.26;62.99;100272.91;5095655;28;20051;-94
2022/03/20 05:40:21;;;;;;;19.15;8.70;;;;;;;5.32;62.88;100284.47;5094665;28;20044;-93
2022/03/20 05:42:46;;;;;;;16.05;8.40;;;;;;;5.31;62.78;100285.34;5095973;28;20416;-94
2022/03/20 05:45:12;;;;;;;21.30;7.93;;;;;;;5.42;62.88;100301.38;5095780;28;20071;-92
2022/03/20 05:47:40;;;;;;;18.67;9.07;;;;;;;5.27;62.86;100274.69;5095607;28;20051;-94
2022/03/20 05:50:08;;;;;;;20.23;8.68;;;;;;;5.33;62.74;100275.72;5095375;28;20409;-95
2022/03/20 05:52:35;;;;;;;16.40;7.85;;;;;;;5.40;62.39;100281.06;5095462;28;20067;-93
2022/03/20 05:55:01;;;;;;;18.58;8.60;;;;;;;5.51;61.86;100283.06;5093273;28;20049;-94
2022/03/20 06:00:34;;;;;;;17.80;7.68;;;;;;;5.70;61.65;100296.56;5113103;27;20362;-94
2022/03/20 06:03:01;;;;;;;17.65;8.07;;;;;;;5.76;61.51;100294.03;5096272;28;20056;-96
2022/03/20 06:05:27;;;;;;;12.50;6.75;;;;;;;5.77;61.11;100295.81;5096856;28;20528;-94
2022/03/20 06:07:52;;;;;;;18.67;8.40;;;;;;;5.88;60.86;100296.88;5092040;28;20040;-94
2022/03/20 06:10:19;;;;;;;22.92;8.27;;;;;;;5.86;60.83;100284.53;5087830;28;20553;-95
2022/03/20 06:12:46;;;;;;;19.38;7.70;;;;;;;5.95;61.06;100292.63;5097130;28;20079;-95
2022/03/20 06:15:13;;;;;;;18.60;7.50;;;;;;;5.96;60.53;100304.94;5100344;28;20623;-94
2022/03/20 06:17:44;;;;;;;17.92;7.80;;;;;;;5.91;60.77;100296.91;5082085;28;20356;-96
2022/03/20 06:20:12;;;;;;;17.33;8.13;;;;;;;6.02;61.00;100298.88;5076542;28;20044;-94
2022/03/20 06:22:38;;;;;;;14.32;7.18;;;;;;;6.08;60.58;100307.78;5077233;28;20036;-95
2022/03/20 06:25:08;;;;;;;21.02;8.52;;;;;;;6.24;60.56;100321.22;5078219;28;20090;-93
2022/03/20 06:27:47;;;;;;;18.92;9.10;;;;;;;6.30;61.05;100321.31;5095506;28;20525;-95
2022/03/20 06:30:14;;;;;;;18.50;8.93;;;;;;;6.22;61.15;100301.81;5094819;28;20378;-95
2022/03/20 06:32:43;;;;;;;15.95;8.18;;;;;;;6.27;60.86;100310.72;5076455;28;20045;-95
2022/03/20 06:35:11;;;;;;;18.27;8.57;;;;;;;6.24;60.97;100306.25;5075703;28;20045;-94
2022/03/20 06:37:38;;;;;;;17.95;7.95;;;;;;;6.33;59.68;100302.88;5075067;28;20273;-91
2022/03/20 06:40:05;;;;;;;17.63;8.13;;;;;;;6.55;59.96;100319.94;5098594;28;20450;-94
2022/03/20 06:42:33;;;;;;;17.80;7.90;;;;;;;6.73;59.38;100335.16;5090354;28;20055;-94
2022/03/20 06:44:59;;;;;;;16.52;7.50;;;;;;;6.68;58.34;100300.75;5079486;28;20052;-94
2022/03/20 06:47:26;;;;;;;19.52;8.00;;;;;;;6.78;58.47;100315.81;5083123;28;20455;-94
2022/03/20 06:49:55;;;;;;;18.05;7.55;;;;;;;7.03;58.32;100344.38;5097874;28;20040;-95
2022/03/20 06:52:22;;;;;;;16.35;7.50;;;;;;;6.93;57.63;100304.56;5098718;28;20420;-95
2022/03/20 06:54:48;;;;;;;17.40;7.43;;;;;;;7.09;58.28;100308.31;5100221;28;20417;-95
2022/03/20 06:57:17;;;;;;;17.75;8.52;;;;;;;7.26;57.29;100334.03;5096472;28;20497;-95
2022/03/20 06:59:43;;;;;;;16.65;8.43;;;;;;;7.33;57.62;100336.78;5096847;28;20105;-94
2022/03/20 07:02:09;;;;;;;18.00;8.00;;;;;;;7.31;57.25;100316.47;5076627;28;20048;-94
2022/03/20 07:04:35;;;;;;;15.63;7.57;;;;;;;7.52;56.03;100327.28;5078361;28;20052;-95
2022/03/20 07:07:04;;;;;;;16.23;7.22;;;;;;;7.64;55.62;100326.53;5081353;28;20104;-95
2022/03/20 07:09:30;;;;;;;16.85;7.75;;;;;;;7.55;56.38;100315.84;5085751;28;20112;-95
2022/03/20 07:11:56;;;;;;;18.92;8.95;;;;;;;7.61;56.06;100318.53;5074945;28;20029;-95
2022/03/20 07:14:22;;;;;;;19.30;8.43;;;;;;;7.74;55.85;100323.09;5081247;28;20053;-93
2022/03/20 07:16:50;;;;;;;16.73;9.18;;;;;;;7.69;56.11;100329.22;5073591;28;20491;-92
2022/03/20 07:19:16;;;;;;;20.38;8.48;;;;;;;7.54;56.41;100325.53;5070715;28;20052;-92
2022/03/20 07:21:42;;;;;;;18.10;7.55;;;;;;;7.84;54.83;100341.72;5080967;28;20036;-92
2022/03/20 07:24:09;;;;;;;23.80;8.38;;;;;;;7.91;55.27;100348.84;5070720;28;20119;-92
2022/03/20 07:29:32;;;;;;;15.90;7.57;;;;;;;8.07;53.90;100352.50;5116162;27;20380;-95
2022/03/20 07:31:59;;;;;;;15.02;7.60;;;;;;;8.15;53.02;100335.78;5116931;28;20040;-92
2022/03/20 07:34:24;;;;;;;18.55;7.60;;;;;;;8.16;52.69;100337.56;5114922;28;20081;-95
2022/03/20 07:36:51;;;;;;;14.38;8.10;;;;;;;8.48;52.25;100349.31;5115322;28;20152;-93
2022/03/20 07:39:17;;;;;;;19.15;7.88;;;;;;;8.32;52.59;100338.56;5115185;28;20047;-95
2022/03/20 07:41:43;;;;;;;16.35;7.72;;;;;;;8.35;52.22;100332.38;5114080;28;20067;-94
2022/03/20 07:44:09;;;;;;;19.67;7.32;;;;;;;8.74;52.22;100350.38;5118764;28;20055;-94
2022/03/20 07:46:38;;;;;;;16.92;7.45;;;;;;;8.69;51.48;100340.59;5115448;28;20032;-95
2022/03/20 07:49:04;;;;;;;;;;;;;;;8.96;52.14;100371.72;5117675;28;20048;-96
2022/03/20 07:51:31;;;;;;;14.63;6.72;;;;;;;8.94;51.21;100336.34;5115746;28;20448;-96
2022/03/20 07:53:57;;;;;;;14.93;7.47;;;;;;;8.98;50.80;100325.75;5114152;28;20044;-94
2022/03/20 07:56:23;;;;;;;16.42;7.30;;;;;;;9.02;51.20;100331.91;5114191;28;20131;-94
2022/03/20 07:58:49;;;;;;;13.30;7.13;;;;;;;9.03;50.79;100344.31;5114124;28;20040;-94
2022/03/20 08:01:15;;;;;;;15.85;7.78;;;;;;;9.26;49.15;100352.41;5114255;28;20610;-93
2022/03/20 08:03:42;;;;;;;17.90;7.68;;;;;;;9.36;49.40;100356.84;5115576;28;20035;-94
2022/03/20 08:06:09;;;;;;;16.52;7.60;;;;;;;9.27;49.97;100332.91;5113308;28;20040;-93
2022/03/20 08:08:36;;;;;;;14.98;7.45;;;;;;;9.43;49.82;100333.84;5115199;28;20420;-93
2022/03/20 08:11:02;;;;;;;13.40;7.13;;;;;;;9.65;48.00;100316.22;5114521;28;20044;-94
2022/03/20 08:13:31;;;;;;;18.77;7.70;;;;;;;9.55;49.28;100331.22;5113980;28;20047;-94
2022/03/20 08:15:57;;;;;;;14.63;6.97;;;;;;;9.90;46.58;100348.09;5114909;28;20126;-94
2022/03/20 08:18:22;;;;;;;12.32;6.93;;;;;;;9.82;45.33;100326.81;5114834;28;20078;-94
2022/03/20 08:20:49;;;;;;;13.38;5.85;;;;;;;10.03;45.06;100321.53;5114674;28;20126;-92
2022/03/20 08:23:16;;;;;;;11.00;5.75;;;;;;;10.22;42.91;100330.38;5114330;28;20047;-93
2022/03/20 08:25:42;;;;;;;12.32;6.63;;;;;;;9.99;42.40;100343.66;5113862;28;20075;-94
2022/03/20 08:28:10;;;;;;;12.13;6.10;;;;;;;10.21;42.25;100346.34;5112819;28;20047;-93
2022/03/20 08:30:37;;;;;;;13.63;6.00;;;;;;;10.39;42.15;100325.09;5116210;28;20055;-93
2022/03/20 08:33:03;;;;;;;13.18;6.93;;;;;;;10.65;42.13;100322.38;5117668;28;20040;-94
2022/03/20 08:35:28;;;;;;;11.65;6.30;;;;;;;10.64;40.91;100322.38;5115212;28;20039;-92
2022/03/20 08:37:56;;;;;;;11.20;6.00;;;;;;;10.84;40.40;100333.88;5113339;28;20039;-94
2022/03/20 08:40:24;;;;;;;12.52;5.72;;;;;;;10.46;41.16;100337.47;5102230;28;20044;-95
2022/03/20 08:42:52;;;;;;;11.38;5.95;;;;;;;10.51;40.33;100313.53;5100267;28;20044;-93
2022/03/20 08:45:19;;;;;;;10.30;5.25;;;;;;;10.97;40.35;100347.13;5099908;28;20136;-95
2022/03/20 08:47:45;;;;;;;11.20;5.75;;;;;;;10.88;39.25;100324.06;5099955;28;20044;-95
2022/03/20 08:50:13;;;;;;;11.57;6.30;;;;;;;11.15;39.37;100325.75;5101269;28;20089;-94
2022/03/20 08:52:39;;;;;;;11.57;6.10;;;;;;;11.39;38.32;100319.41;5102785;28;20036;-94
2022/03/20 08:55:10;;;;;;;18.23;6.53;;;;;;;11.45;38.97;100315.81;5101471;28;20040;-94
2022/03/20 08:57:39;;;;;;;14.15;6.40;;;;;;;11.59;38.35;100303.31;5102478;28;20053;-95
2022/03/20 09:00:07;;;;;;;12.07;6.10;;;;;;;11.76;38.39;100323.66;5104841;28;20089;-93
2022/03/20 09:02:33;;;;;;;12.85;6.60;;;;;;;11.79;36.83;100304.94;5103011;28;20059;-95
2022/03/20 09:04:59;;;;;;;11.93;6.13;;;;;;;11.97;37.56;100311.94;5101855;28;20066;-95
2022/03/20 09:07:25;;;;;;;10.93;6.05;;;;;;;12.09;36.01;100327.84;5081804;28;20436;-95
2022/03/20 09:09:51;;;;;;;14.07;6.78;;;;;;;11.89;36.36;100306.69;5096172;28;20063;-96
2022/03/20 09:12:18;;;;;;;12.82;6.20;;;;;;;12.01;36.08;100295.91;5103564;28;20048;-94
2022/03/20 09:14:45;;;;;;;11.98;6.18;;;;;;;12.28;35.26;100321.47;5101088;28;20044;-95
2022/03/20 09:20:10;;;;;;;12.45;6.40;;;;;;;12.46;35.74;100317.72;5118785;27;20384;-95
2022/03/20 09:22:36;;;;;;;13.70;7.28;;;;;;;12.59;35.10;100296.25;5118704;28;20050;-93
2022/03/20 09:25:02;;;;;;;13.43;7.68;;;;;;;12.66;35.16;100327.31;5117767;28;20099;-94
2022/03/20 09:27:31;;;;;;;11.68;5.95;;;;;;;12.84;33.32;100319.13;5118790;28;20066;-94
2022/03/20 09:29:57;;;;;;;13.68;6.47;;;;;;;12.66;33.42;100296.16;5117294;28;20047;-94
2022/03/20 09:32:23;;;;;;;11.30;5.82;;;;;;;12.64;31.79;100287.31;5117343;28;20032;-95
2022/03/20 09:34:49;;;;;;;9.82;5.88;;;;;;;12.58;32.50;100282.03;5121100;28;20131;-95
2022/03/20 09:37:17;;;;;;;11.63;5.68;;;;;;;12.97;33.85;100306.50;5119518;28;20040;-93
2022/03/20 09:39:42;;;;;;;12.32;6.03;;;;;;;13.27;31.36;100318.59;5120077;28;20036;-94
2022/03/20 09:42:09;;;;;;;11.45;5.28;;;;;;;13.21;29.01;100294.63;5121847;28;20160;-94
2022/03/20 09:44:38;;;;;;;11.27;5.43;;;;;;;13.10;28.79;100289.44;5119205;28;20044;-95
2022/03/20 09:47:08;;;;;;;11.02;5.57;;;;;;;12.96;27.41;100272.69;5119990;28;20051;-96
2022/03/20 09:49:36;;;;;;;8.60;5.20;;;;;;;13.04;27.81;100289.50;5120948;28;20131;-94
2022/03/20 09:52:04;;;;;;;10.05;4.80;;;;;;;12.91;27.83;100287.88;5139034;27;20048;-94
2022/03/20 09:54:32;;;;;;;10.32;5.05;;;;;;;13.21;26.38;100296.41;5137128;27;20051;-92
2022/03/20 09:57:03;;;;;;;10.15;4.90;;;;;;;13.03;26.08;100313.53;5119214;28;20040;-94
2022/03/20 09:59:29;;;;;;;10.15;4.80;;;;;;;13.18;26.72;100313.34;5119456;28;20079;-93
2022/03/20 10:02:01;;;;;;;9.77;5.47;;;;;;;12.80;27.12;100297.81;5119010;28;20079;-93
2022/03/20 10:04:26;;;;;;;11.85;5.72;;;;;;;12.92;27.43;100289.63;5116860;28;20126;-93
2022/03/20 10:06:53;;;;;;;10.15;5.55;;;;;;;13.30;27.07;100315.91;5117380;28;20070;-94
2022/03/20 10:09:19;;;;;;;10.48;6.03;;;;;;;13.44;27.17;100306.81;5127910;28;20116;-93
2022/03/20 10:11:53;;;;;;;9.77;5.18;;;;;;;12.80;26.95;100311.16;5118369;27;20048;-95
2022/03/20 10:14:21;;;;;;;10.50;5.75;;;;;;;12.94;27.05;100331.44;5116724;28;20079;-95
2022/03/20 10:16:49;;;;;;;9.98;5.43;;;;;;;12.63;28.03;100306.00;5117412;28;20048;-95
2022/03/20 10:19:29;;;;;;;10.30;5.75;;;;;;;12.89;27.19;100317.25;5117386;28;20083;-93
2022/03/20 10:21:57;;;;;;;9.30;5.25;;;;;;;12.91;26.95;100318.13;5118340;28;20064;-94
2022/03/20 10:24:27;;;;;;;10.35;5.50;;;;;;;12.82;26.82;100312.91;5118462;28;20052;-93
2022/03/20 10:27:06;;;;;;;8.77;5.28;;;;;;;12.91;26.88;100301.25;5118941;28;20087;-94
2022/03/20 10:29:34;;;;;;;9.90;5.30;;;;;;;12.97;26.15;100286.91;5114269;28;20032;-92
2022/03/20 10:32:02;;;;;;;11.23;5.80;;;;;;;12.97;26.50;100301.16;5102556;28;20097;-93
2022/03/20 10:34:28;;;;;;;9.70;5.55;;;;;;;13.24;26.88;100315.94;5104154;28;20157;-93
2022/03/20 10:36:57;;;;;;;9.48;5.47;;;;;;;13.12;26.36;100297.44;5103260;28;20097;-93
2022/03/20 10:39:26;;;;;;;;;;;;;;;13.44;26.54;100328.19;5103699;28;20051;-94
2022/03/20 10:41:56;;;;;;;9.73;5.00;;;;;;;12.84;25.59;100294.22;5103042;28;19924;-94
2022/03/20 10:44:25;;;;;;;10.07;5.50;;;;;;;13.17;26.42;100321.41;5083676;28;20055;-95
2022/03/20 10:46:56;;;;;;;9.43;4.63;;;;;;;12.82;26.77;100288.88;5104999;28;20043;-96
2022/03/20 10:49:23;;;;;;;6.85;4.53;;;;;;;13.02;26.75;100295.75;5106629;28;20048;-94
2022/03/20 10:52:01;;;;;;;10.00;5.47;;;;;;;13.21;27.30;100293.75;5101271;28;20553;-94
2022/03/20 10:54:38;;;;;;;9.07;5.18;;;;;;;13.42;27.59;100296.13;5087862;28;20123;-92
2022/03/20 10:57:06;;;;;;;11.57;5.35;;;;;;;13.48;27.76;100285.34;5099070;28;20044;-92
2022/03/20 10:59:33;;;;;;;10.30;5.60;;;;;;;13.34;26.57;100285.56;5098780;28;20032;-95
2022/03/20 11:01:59;;;;;;;6.13;4.45;;;;;;;13.41;26.22;100285.47;5102287;28;20048;-96
2022/03/20 11:04:25;;;;;;;11.15;5.20;;;;;;;13.58;26.51;100302.16;5102058;28;20055;-93
2022/03/20 11:06:54;;;;;;;11.43;6.25;;;;;;;13.63;26.05;100286.03;5102358;28;20511;-93
2022/03/20 11:09:21;;;;;;;8.13;5.55;;;;;;;13.46;25.65;100283.63;5101507;28;20044;-94
2022/03/20 11:11:49;;;;;;;11.45;6.35;;;;;;;13.24;25.88;100291.91;5100622;28;20048;-94
2022/03/20 11:14:19;;;;;;;9.82;5.72;;;;;;;13.47;26.42;100301.44;5104911;28;20055;-95
2022/03/20 11:16:59;;;;;;;13.77;7.20;;;;;;;13.47;26.71;100320.13;5112604;28;20105;-95
2022/03/20 11:19:29;;;;;;;9.45;5.72;;;;;;;13.00;26.73;100290.44;5107050;28;20067;-94
2022/03/20 11:24:35;;;;;;;8.95;5.55;;;;;;;13.40;27.35;100267.66;5044071;22;20062;-95
2022/03/20 11:27:03;;;;;;;11.43;6.40;;;;;;;13.67;26.79;100290.44;5006350;28;20050;-94
2022/03/20 11:29:40;;;;;;;11.97;5.70;;;;;;;13.66;27.59;100267.28;5005882;28;20046;-95
2022/03/20 11:32:08;;;;;;;14.07;6.75;;;;;;;13.81;26.67;100288.41;5002089;28;20062;-94
2022/03/20 11:34:35;;;;;;;13.43;7.03;;;;;;;13.71;26.14;100270.78;5003727;28;20531;-94
2022/03/20 11:37:03;;;;;;;10.32;6.63;;;;;;;13.82;26.87;100268.81;5004066;28;20157;-94
2022/03/20 11:39:29;;;;;;;10.95;5.63;;;;;;;13.82;27.80;100271.47;5004514;28;20041;-93
2022/03/20 11:42:23;;;;;;;7.25;5.10;;;;;;;13.81;26.99;100263.47;5000889;28;20039;-94
2022/03/20 11:45:09;;;;;;;12.48;6.00;;;;;;;13.76;26.06;100267.09;5000630;28;20053;-95
2022/03/20 11:47:36;;;;;;;11.73;5.78;;;;;;;13.71;26.29;100271.66;4992063;28;20042;-93
2022/03/20 11:50:17;;;;;;;12.48;6.35;;;;;;;13.58;28.86;100274.56;5000051;28;20046;-95
2022/03/20 11:52:55;;;;;;;10.02;5.60;;;;;;;13.35;30.71;100265.94;5002215;28;20042;-94
2022/03/20 11:55:26;;;;;;;10.95;6.53;;;;;;;13.24;31.56;100250.94;5003389;28;20078;-94
2022/03/20 11:57:52;;;;;;;12.50;7.00;;;;;;;13.44;31.68;100277.41;5006380;28;20058;-94
2022/03/20 12:00:24;;;;;;;10.95;6.30;;;;;;;13.01;32.26;100267.28;5003408;28;20053;-91